createdAt,value
2023-04-09T00:01:31.039Z,101179.34
2023-04-09T00:04:33.466Z,101154.97
2023-04-09T00:07:35.981Z,101178.53
2023-04-09T00:10:38.361Z,101182.38
2023-04-09T00:13:40.768Z,101176.63
2023-04-09T00:16:43.207Z,101180.66
2023-04-09T00:19:45.654Z,101178.06
2023-04-09T00:22:48.618Z,101187.81
2023-04-09T00:25:51.202Z,101177.59
2023-04-09T00:28:53.684Z,101186.22
2023-04-09T00:31:56.203Z,101186.22
2023-04-09T00:34:58.602Z,101181.91
2023-04-09T00:38:01.141Z,101180.78
2023-04-09T00:41:03.500Z,101174.44
2023-04-09T00:44:05.965Z,101181.44
2023-04-09T00:47:08.407Z,101173.50
2023-04-09T00:50:11.134Z,101171.25
2023-04-09T00:53:14.584Z,101173.63
2023-04-09T00:56:17.663Z,101175.22
2023-04-09T00:59:19.967Z,101173.31
2023-04-09T01:02:22.553Z,101169.78
2023-04-09T01:05:29.527Z,101172.50
2023-04-09T01:08:59.352Z,101176.66
2023-04-09T01:12:29.556Z,101171.25
2023-04-09T01:15:36.387Z,101163.44
2023-04-09T01:18:51.836Z,101161.06
2023-04-09T01:21:56.548Z,101168.22
2023-04-09T01:25:13.595Z,101172.38
2023-04-09T01:28:22.893Z,101165.69
2023-04-09T01:31:38.656Z,101166.47
2023-04-09T01:34:41.941Z,101159.78
2023-04-09T01:37:44.532Z,101171.09
2023-04-09T01:40:47.471Z,101172.69
2023-04-09T01:43:51.731Z,101173.03
2023-04-09T01:46:55.579Z,101177.31
2023-04-09T01:49:58.153Z,101164.28
2023-04-09T01:53:01.708Z,101163.94
2023-04-09T01:56:04.296Z,101173.69
2023-04-09T01:59:06.658Z,101175.28
2023-04-09T02:02:19.119Z,101183.09
2023-04-09T02:05:27.113Z,101174.16
2023-04-09T02:08:30.801Z,101179.56
2023-04-09T02:11:33.861Z,101174.00
2023-04-09T02:14:37.796Z,101170.16
2023-04-09T02:17:40.551Z,101176.25
2023-04-09T02:20:42.935Z,101167.63
2023-04-09T02:23:45.270Z,101170.63
2023-04-09T02:26:47.583Z,101159.97
2023-04-09T02:29:50.802Z,101157.59
2023-04-09T02:32:53.446Z,101162.34
2023-04-09T02:35:55.869Z,101161.56
2023-04-09T02:38:58.273Z,101170.97
2023-04-09T02:42:01.389Z,101154.41
2023-04-09T02:45:03.887Z,101161.88
2023-04-09T02:48:08.287Z,101160.63
2023-04-09T02:51:11.255Z,101166.19
2023-04-09T02:54:13.604Z,101161.56
2023-04-09T02:57:16.171Z,101164.59
2023-04-09T03:00:18.536Z,101153.94
2023-04-09T03:03:21.386Z,101160.63
2023-04-09T03:06:23.890Z,101169.22
2023-04-09T03:09:26.270Z,101154.41
2023-04-09T03:12:28.554Z,101154.72
2023-04-09T03:15:30.936Z,101168.28
2023-04-09T03:18:33.321Z,101166.84
2023-04-09T03:21:35.674Z,101171.94
2023-04-09T03:24:37.987Z,101165.72
2023-04-09T03:27:41.736Z,101169.88
2023-04-09T03:30:45.393Z,101170.53
2023-04-09T03:33:49.015Z,101171.47
2023-04-09T03:36:51.496Z,101171.47
2023-04-09T03:40:04.065Z,101172.28
2023-04-09T03:43:07.286Z,101171.00
2023-04-09T03:46:15.829Z,101169.41
2023-04-09T03:49:20.794Z,101160.00
2023-04-09T03:52:23.228Z,101167.81
2023-04-09T03:55:34.349Z,101152.38
2023-04-09T03:58:41.309Z,101170.88
2023-04-09T04:01:45.408Z,101168.63
2023-04-09T04:04:48.722Z,101171.97
2023-04-09T04:07:52.168Z,101177.09
2023-04-09T04:11:05.365Z,101170.53
2023-04-09T04:14:08.722Z,101175.16
2023-04-09T04:17:11.906Z,101177.09
2023-04-09T04:20:15.032Z,101184.91
2023-04-09T04:23:29.502Z,101179.00
2023-04-09T04:26:45.418Z,101181.25
2023-04-09T04:29:51.178Z,101178.06
2023-04-09T04:33:08.935Z,101186.00
2023-04-09T04:36:18.821Z,101185.88
2023-04-09T04:39:27.127Z,101187.94
2023-04-09T04:42:43.887Z,101191.44
2023-04-09T04:45:51.347Z,101187.94
2023-04-09T04:48:58.003Z,101189.84
2023-04-09T04:52:00.710Z,101190.50
2023-04-09T04:55:03.388Z,101192.56
2023-04-09T04:58:05.955Z,101187.78
2023-04-09T05:01:17.763Z,101186.19
2023-04-09T05:04:20.502Z,101196.06
2023-04-09T05:07:22.950Z,101188.91
2023-04-09T05:10:28.837Z,101195.59
2023-04-09T05:13:32.884Z,101198.31
2023-04-09T05:16:37.978Z,101201.63
2023-04-09T05:19:41.706Z,101202.44
2023-04-09T05:22:45.389Z,101208.19
2023-04-09T05:25:50.744Z,101217.25
2023-04-09T05:29:02.709Z,101217.25
2023-04-09T05:32:05.732Z,101220.78
2023-04-09T05:35:12.350Z,101225.06
2023-04-09T05:38:18.815Z,101211.69
2023-04-09T05:41:28.458Z,101223.97
2023-04-09T05:44:49.250Z,101217.25
2023-04-09T05:47:55.171Z,101224.28
2023-04-09T05:51:00.465Z,101223.97
2023-04-09T05:54:04.185Z,101229.19
2023-04-09T05:57:10.557Z,101225.38
2023-04-09T06:00:16.732Z,101236.38
2023-04-09T06:03:19.544Z,101232.38
2023-04-09T06:06:22.249Z,101238.44
2023-04-09T06:09:24.646Z,101228.22
2023-04-09T06:12:26.993Z,101234.59
2023-04-09T06:15:29.438Z,101235.72
2023-04-09T06:18:31.878Z,101237.44
2023-04-09T06:21:34.269Z,101247.19
2023-04-09T06:24:36.893Z,101240.63
2023-04-09T06:27:39.222Z,101237.91
2023-04-09T06:30:41.820Z,101227.38
2023-04-09T06:33:44.162Z,101241.44
2023-04-09T06:36:46.522Z,101242.69
2023-04-09T06:40:00.654Z,101228.19
2023-04-09T06:43:03.998Z,101251.44
2023-04-09T06:46:17.330Z,101242.38
2023-04-09T06:49:19.733Z,101251.78
2023-04-09T06:52:22.047Z,101253.50
2023-04-09T06:55:24.507Z,101250.78
2023-04-09T06:58:26.898Z,101249.19
2023-04-09T07:01:29.285Z,101258.28
2023-04-09T07:04:31.725Z,101257.16
2023-04-09T07:07:34.170Z,101262.25
2023-04-09T07:10:36.797Z,101262.59
2023-04-09T07:13:39.213Z,101277.38
2023-04-09T07:16:41.562Z,101274.16
2023-04-09T07:19:43.939Z,101267.91
2023-04-09T07:22:46.375Z,101279.13
2023-04-09T07:25:48.740Z,101276.28
2023-04-09T07:28:51.666Z,101287.16
2023-04-09T07:31:54.153Z,101285.91
2023-04-09T07:34:57.377Z,101268.59
2023-04-09T07:37:59.801Z,101281.69
2023-04-09T07:41:02.131Z,101276.97
2023-04-09T07:44:06.409Z,101275.03
2023-04-09T07:47:09.162Z,101288.88
2023-04-09T07:50:12.321Z,101279.91
2023-04-09T07:53:14.819Z,101289.16
2023-04-09T07:56:17.221Z,101284.69
2023-04-09T07:59:19.586Z,101284.50
2023-04-09T08:02:23.293Z,101283.38
2023-04-09T08:05:25.735Z,101282.59
2023-04-09T08:08:28.162Z,101284.97
2023-04-09T08:11:30.699Z,101285.31
2023-04-09T08:14:33.165Z,101280.66
2023-04-09T08:17:37.360Z,101290.41
2023-04-09T08:20:45.165Z,101284.84
2023-04-09T08:23:47.879Z,101301.28
2023-04-09T08:26:50.438Z,101294.25
2023-04-09T08:29:52.787Z,101297.44
2023-04-09T08:32:55.207Z,101305.28
2023-04-09T08:35:57.668Z,101301.28
2023-04-09T08:39:00.708Z,101293.31
2023-04-09T08:42:03.892Z,101296.97
2023-04-09T08:45:06.998Z,101295.06
2023-04-09T08:48:14.258Z,101302.09
2023-04-09T08:51:18.222Z,101312.19
2023-04-09T08:54:20.578Z,101312.19
2023-04-09T08:57:22.991Z,101312.19
2023-04-09T09:00:25.349Z,101317.63
2023-04-09T09:03:27.787Z,101315.09
2023-04-09T09:06:41.247Z,101323.72
2023-04-09T09:09:58.001Z,101322.59
2023-04-09T09:13:00.469Z,101320.53
2023-04-09T09:16:13.946Z,101329.19
2023-04-09T09:19:26.147Z,101327.59
2023-04-09T09:22:28.606Z,101317.34
2023-04-09T09:25:38.069Z,101318.00
2023-04-09T09:28:40.436Z,101321.19
2023-04-09T09:31:49.194Z,101329.81
2023-04-09T09:34:59.576Z,101334.47
2023-04-09T09:38:04.106Z,101328.22
2023-04-09T09:41:19.617Z,101327.44
2023-04-09T09:44:32.495Z,101317.22
2023-04-09T09:47:34.924Z,101321.06
2023-04-09T09:50:39.014Z,101324.59
2023-04-09T09:53:45.914Z,101320.72
2023-04-09T09:56:51.710Z,101307.34
2023-04-09T09:59:56.817Z,101319.25
2023-04-09T10:03:06.718Z,101306.66
2023-04-09T10:06:09.355Z,101308.25
2023-04-09T10:09:12.617Z,101309.19
2023-04-09T10:12:15.037Z,101298.50
2023-04-09T10:15:18.584Z,101299.97
2023-04-09T10:18:21.384Z,101316.03
2023-04-09T10:21:27.640Z,101313.09
2023-04-09T10:24:30.640Z,101316.63
2023-04-09T10:27:33.016Z,101303.69
2023-04-09T10:30:36.764Z,101304.94
2023-04-09T10:33:39.497Z,101294.97
2023-04-09T10:36:45.963Z,101303.59
2023-04-09T10:39:49.931Z,101297.47
2023-04-09T10:42:52.945Z,101305.19
2023-04-09T10:45:57.822Z,101304.50
2023-04-09T10:49:13.834Z,101304.97
2023-04-09T10:52:16.481Z,101300.53
2023-04-09T10:55:40.930Z,101302.25
2023-04-09T10:58:43.326Z,101310.53
2023-04-09T11:01:53.638Z,101290.88
2023-04-09T11:05:30.222Z,101303.94
2023-04-09T11:08:33.832Z,101302.03
2023-04-09T11:11:37.034Z,101301.22
2023-04-09T11:14:39.433Z,101297.25
2023-04-09T11:17:41.864Z,101286.59
2023-04-09T11:20:44.487Z,101292.94
2023-04-09T11:23:52.337Z,101299.97
2023-04-09T11:26:55.131Z,101295.53
2023-04-09T11:29:57.575Z,101293.63
2023-04-09T11:33:00.943Z,101289.19
2023-04-09T11:36:05.729Z,101291.69
2023-04-09T11:39:08.149Z,101288.16
2023-04-09T11:42:16.675Z,101292.47
2023-04-09T11:45:20.535Z,101295.66
2023-04-09T11:48:24.939Z,101292.03
2023-04-09T11:51:28.232Z,101283.75
2023-04-09T11:54:34.373Z,101292.47
2023-04-09T11:57:44.872Z,101278.41
2023-04-09T12:00:47.288Z,101292.16
2023-04-09T12:03:54.585Z,101284.31
2023-04-09T12:06:58.946Z,101277.16
2023-04-09T12:10:06.614Z,101272.72
2023-04-09T12:13:13.778Z,101281.47
2023-04-09T12:16:19.628Z,101282.28
2023-04-09T12:19:25.864Z,101264.44
2023-04-09T12:22:28.201Z,101274.78
2023-04-09T12:25:35.561Z,101266.63
2023-04-09T12:28:56.202Z,101274.09
2023-04-09T12:31:58.913Z,101268.66
2023-04-09T12:35:01.503Z,101268.31
2023-04-09T12:38:05.273Z,101255.28
2023-04-09T12:41:08.042Z,101262.88
2023-04-09T12:44:10.358Z,101261.63
2023-04-09T12:47:13.396Z,101256.41
2023-04-09T12:50:16.359Z,101256.53
2023-04-09T12:53:18.837Z,101247.44
2023-04-09T12:56:21.188Z,101246.66
2023-04-09T12:59:23.561Z,101251.41
2023-04-09T13:02:26.377Z,101248.69
2023-04-09T13:05:28.984Z,101250.97
2023-04-09T13:08:31.399Z,101241.22
2023-04-09T13:11:33.696Z,101244.28
2023-04-09T13:14:36.586Z,101241.22
2023-04-09T13:17:38.986Z,101244.28
2023-04-09T13:20:41.527Z,101238.03
2023-04-09T13:23:44.024Z,101218.75
2023-04-09T13:26:46.439Z,101229.06
2023-04-09T13:29:48.798Z,101230.66
2023-04-09T13:32:51.320Z,101229.28
2023-04-09T13:35:53.932Z,101229.28
2023-04-09T13:38:56.436Z,101232.94
2023-04-09T13:41:59.217Z,101222.72
2023-04-09T13:45:01.605Z,101223.19
2023-04-09T13:48:04.214Z,101210.44
2023-04-09T13:51:07.188Z,101221.25
2023-04-09T13:54:11.268Z,101224.75
2023-04-09T13:57:13.652Z,101216.16
2023-04-09T14:00:16.399Z,101221.25
2023-04-09T14:03:18.897Z,101207.53
2023-04-09T14:06:21.379Z,101208.78
2023-04-09T14:09:23.767Z,101211.63
2023-04-09T14:12:26.266Z,101205.03
2023-04-09T14:15:28.582Z,101214.00
2023-04-09T14:18:30.936Z,101202.88
2023-04-09T14:21:34.476Z,101206.63
2023-04-09T14:24:40.187Z,101199.38
2023-04-09T14:27:42.689Z,101202.56
2023-04-09T14:30:45.140Z,101209.00
2023-04-09T14:33:48.243Z,101204.34
2023-04-09T14:36:50.614Z,101208.50
2023-04-09T14:39:52.981Z,101203.47
2023-04-09T14:42:55.354Z,101201.50
2023-04-09T14:45:58.014Z,101197.44
2023-04-09T14:49:00.378Z,101204.31
2023-04-09T14:52:02.827Z,101212.13
2023-04-09T14:55:05.671Z,101198.41
2023-04-09T14:58:08.588Z,101209.84
2023-04-09T15:01:11.161Z,101210.19
2023-04-09T15:04:13.573Z,101210.19
2023-04-09T15:07:16.109Z,101207.81
2023-04-09T15:10:19.174Z,101205.00
2023-04-09T15:13:21.560Z,101206.91
2023-04-09T15:16:26.060Z,101202.16
2023-04-09T15:19:28.518Z,101201.75
2023-04-09T15:22:31.255Z,101202.88
2023-04-09T15:25:33.630Z,101201.97
2023-04-09T15:28:36.103Z,101205.81
2023-04-09T15:31:40.864Z,101201.41
2023-04-09T15:34:44.053Z,101198.69
2023-04-09T15:37:46.400Z,101190.66
2023-04-09T15:40:48.775Z,101193.28
2023-04-09T15:43:51.884Z,101203.13
2023-04-09T15:46:54.242Z,101201.00
2023-04-09T15:49:59.126Z,101198.06
2023-04-09T15:53:01.484Z,101195.44
2023-04-09T15:56:05.516Z,101198.06
2023-04-09T15:59:08.379Z,101200.34
2023-04-09T16:02:11.152Z,101190.13
2023-04-09T16:05:13.682Z,101202.50
2023-04-09T16:08:16.150Z,101198.53
2023-04-09T16:11:18.519Z,101199.22
2023-04-09T16:14:21.297Z,101200.72
2023-04-09T16:17:23.858Z,101192.31
2023-04-09T16:20:26.235Z,101197.31
2023-04-09T16:23:30.650Z,101191.06
2023-04-09T16:26:33.273Z,101194.81
2023-04-09T16:29:35.667Z,101200.28
2023-04-09T16:32:38.073Z,101190.28
2023-04-09T16:35:40.685Z,101192.34
2023-04-09T16:38:43.083Z,101188.38
2023-04-09T16:41:45.808Z,101179.97
2023-04-09T16:44:48.183Z,101194.50
2023-04-09T16:47:53.775Z,101189.63
2023-04-09T16:50:56.428Z,101192.78
2023-04-09T16:53:58.819Z,101195.75
2023-04-09T16:57:02.624Z,101196.19
2023-04-09T17:00:06.683Z,101194.50
2023-04-09T17:03:09.129Z,101187.69
2023-04-09T17:06:11.545Z,101198.69
2023-04-09T17:09:13.913Z,101198.59
2023-04-09T17:12:17.333Z,101188.72
2023-04-09T17:15:19.675Z,101189.97
2023-04-09T17:18:22.027Z,101177.72
2023-04-09T17:21:24.402Z,101185.44
2023-04-09T17:24:26.832Z,101197.22
2023-04-09T17:27:29.250Z,101194.38
2023-04-09T17:30:33.233Z,101194.38
2023-04-09T17:33:35.664Z,101197.34
2023-04-09T17:36:38.066Z,101210.81
2023-04-09T17:39:41.067Z,101203.34
2023-04-09T17:42:43.462Z,101207.06
2023-04-09T17:45:46.104Z,101204.53
2023-04-09T17:48:48.533Z,101220.06
2023-04-09T17:51:50.878Z,101222.78
2023-04-09T17:54:53.364Z,101223.69
2023-04-09T17:57:55.727Z,101214.75
2023-04-09T18:00:59.634Z,101235.09
2023-04-09T18:04:02.227Z,101232.03
2023-04-09T18:07:04.829Z,101230.22
2023-04-09T18:10:07.687Z,101237.16
2023-04-09T18:13:10.135Z,101238.13
2023-04-09T18:16:12.793Z,101239.69
2023-04-09T18:19:15.557Z,101230.94
2023-04-09T18:22:17.983Z,101242.16
2023-04-09T18:25:22.285Z,101241.91
2023-04-09T18:28:24.787Z,101253.72
2023-04-09T18:31:27.418Z,101247.03
2023-04-09T18:34:29.835Z,101249.75
2023-04-09T18:37:34.205Z,101248.59
2023-04-09T18:40:43.693Z,101250.88
2023-04-09T18:43:46.027Z,101249.31
2023-04-09T18:46:48.503Z,101257.28
2023-04-09T18:49:50.910Z,101259.00
2023-04-09T18:52:53.218Z,101248.44
2023-04-09T18:55:55.628Z,101257.63
2023-04-09T18:58:58.143Z,101259.09
2023-04-09T19:02:05.252Z,101249.13
2023-04-09T19:05:08.469Z,101252.97
2023-04-09T19:08:10.969Z,101256.50
2023-04-09T19:11:14.415Z,101259.91
2023-04-09T19:14:16.739Z,101254.34
2023-04-09T19:17:19.063Z,101260.94
2023-04-09T19:20:22.108Z,101255.38
2023-04-09T19:23:24.740Z,101253.00
2023-04-09T19:26:27.107Z,101259.16
2023-04-09T19:29:29.430Z,101251.53
2023-04-09T19:32:31.879Z,101255.06
2023-04-09T19:35:35.901Z,101259.38
2023-04-09T19:38:38.335Z,101272.19
2023-04-09T19:41:40.768Z,101262.34
2023-04-09T19:44:43.290Z,101254.38
2023-04-09T19:47:45.684Z,101255.97
2023-04-09T19:50:48.993Z,101267.56
2023-04-09T19:53:51.672Z,101256.09
2023-04-09T19:56:54.016Z,101264.94
2023-04-09T19:59:56.547Z,101260.19
2023-04-09T20:02:59.044Z,101263.13
2023-04-09T20:06:06.656Z,101253.50
2023-04-09T20:09:12.395Z,101259.28
2023-04-09T20:12:14.797Z,101260.28
2023-04-09T20:15:20.268Z,101265.72
2023-04-09T20:18:22.667Z,101260.41
2023-04-09T20:21:25.081Z,101258.13
2023-04-09T20:24:28.271Z,101260.72
2023-04-09T20:27:31.426Z,101252.13
2023-04-09T20:30:33.751Z,101267.75
2023-04-09T20:33:36.218Z,101264.94
2023-04-09T20:36:42.190Z,101253.13
2023-04-09T20:39:45.115Z,101260.38
2023-04-09T20:42:47.549Z,101257.53
2023-04-09T20:45:49.924Z,101256.63
2023-04-09T20:48:52.389Z,101253.63
2023-04-09T20:51:55.195Z,101259.06
2023-04-09T20:54:57.740Z,101256.09
2023-04-09T20:58:00.337Z,101260.41
2023-04-09T21:01:07.730Z,101264.59
2023-04-09T21:04:10.397Z,101265.94
2023-04-09T21:07:12.912Z,101258.78
2023-04-09T21:10:15.591Z,101262.66
2023-04-09T21:13:17.918Z,101251.72
2023-04-09T21:16:20.459Z,101272.16
2023-04-09T21:19:22.949Z,101261.34
2023-04-09T21:22:26.785Z,101273.16
2023-04-09T21:25:29.470Z,101264.41
2023-04-09T21:28:32.053Z,101265.53
2023-04-09T21:31:35.686Z,101265.06
2023-04-09T21:34:39.572Z,101272.44
2023-04-09T21:37:41.978Z,101272.56
2023-04-09T21:40:46.308Z,101262.84
2023-04-09T21:43:48.657Z,101260.19
2023-04-09T21:46:50.974Z,101260.81
2023-04-09T21:49:53.379Z,101262.22
2023-04-09T21:52:56.278Z,101255.75
2023-04-09T21:55:58.622Z,101263.94
2023-04-09T21:59:01.421Z,101259.72
2023-04-09T22:02:04.897Z,101264.34
2023-04-09T22:05:07.647Z,101267.75
2023-04-09T22:08:10.151Z,101270.25
2023-04-09T22:11:12.596Z,101260.81
2023-04-09T22:14:16.607Z,101263.53
2023-04-09T22:17:18.989Z,101253.22
2023-04-09T22:20:21.433Z,101261.59
2023-04-09T22:23:23.835Z,101267.84
2023-04-09T22:26:26.654Z,101271.72
2023-04-09T22:29:30.678Z,101270.94
2023-04-09T22:32:35.943Z,101273.44
2023-04-09T22:35:38.351Z,101259.69
2023-04-09T22:38:40.690Z,101270.16
2023-04-09T22:41:43.171Z,101275.72
2023-04-09T22:44:45.544Z,101273.66
2023-04-09T22:47:47.928Z,101263.69
2023-04-09T22:50:50.968Z,101268.00
2023-04-09T22:53:53.309Z,101278.56
2023-04-09T22:56:57.489Z,101267.78
2023-04-09T22:59:59.906Z,101280.25
2023-04-09T23:03:02.314Z,101274.59
2023-04-09T23:06:05.131Z,101273.22
2023-04-09T23:09:07.448Z,101279.69
2023-04-09T23:12:09.790Z,101271.75
2023-04-09T23:15:12.246Z,101277.78
2023-04-09T23:18:14.710Z,101274.47
2023-04-09T23:21:17.022Z,101267.22
2023-04-09T23:24:19.406Z,101274.47
2023-04-09T23:27:28.213Z,101271.63
2023-04-09T23:30:31.641Z,101269.56
2023-04-09T23:33:34.528Z,101270.13
2023-04-09T23:36:36.855Z,101272.63
2023-04-09T23:39:39.259Z,101261.59
2023-04-09T23:42:41.557Z,101268.97
2023-04-09T23:45:44.421Z,101264.41
2023-04-09T23:48:46.808Z,101270.09
2023-04-09T23:51:51.200Z,101271.75
2023-04-09T23:54:54.143Z,101266.53
2023-04-09T23:57:56.894Z,101254.63
